ECLK1: Elk City Lake

Data processed at Fri Jan 05 2018 23:02


All information presented herein is the property of the government of the United States of America and may be revised or deleted at any time without prior notice.
Dissemination of this information without the expressed written consent of the Public Affairs Office, Tulsa District U.S. Army Corps of Engineers is strictly prohibited.
These data are gathered electronically and, as presented, have not undergone any form of quality control. These data are not guaranteed to be valid or correct.
Go to home page.
Go to station list.

Upstream stations:

Downstream station:
Previous Day
Next Day
Current Day
    
SHEF ID:       ECLK1     Elk City Lake
STATION TYPE:  RESERVOIR
Normal Pool:  Bottom =   764.00, Top =   796.00

               PRECIP ELEVATION   STORAGE    INFLOW   RELEASE  AIR-TEMP  WIND-DIRWIND-SPEED REL-HUMID SOLAR-RAD   VOLTAGE  BAT-LOAD
                   in        ft     ac-ft       cfs       cfs         F       deg       mph         %      W/m2      volt      volt
              Ccp-Rev   Ccp-Rev   Ccp-Rev  Regi-Rev  Regi-Rev   Ccp-Rev   Ccp-Rev   Ccp-Rev   Ccp-Rev   Ccp-Rev   Ccp-Rev   Ccp-Rev
(US/Central)
01/03 00:00      0.00    796.33     38638         1        15     18.55    174.35      5.19     49.08      0.00     13.57     12.86
01/03 01:00      0.00    796.31     38565         1        15     17.94    176.61      8.20     51.88      0.00     13.56     12.86
01/03 02:00      0.00    796.31     38565         1        15     18.01    176.53      4.79     51.67      0.00     13.60     12.93
01/03 03:00      0.00    796.31     38565         1        15     18.88    172.61      5.89     51.00      0.00     13.56     12.86
01/03 04:00      0.00    796.31     38565         1        15     18.14    176.98      4.57     53.29      0.00     13.57     12.88
01/03 05:00      0.00    796.31     38565         1        15     17.38    176.47      4.21     56.42      0.00     13.59     12.88
01/03 06:00      0.00    796.32     38602         1        15     17.37    199.88      1.82     55.04      0.00     13.57     12.87
01/03 07:00      0.00    796.31     38565         1        15     17.04    197.62      1.83     55.85      0.00     13.59     12.97
01/03 08:00      0.00    796.31     38565         1        15     16.70    231.71      0.56     57.28      0.02     13.54     12.87
01/03 09:00      0.00    796.31     38565         7        15     19.17    351.41      3.30     59.56    124.32     13.56     12.90
01/03 10:00      0.00    796.31     38565        10        15     25.52    329.47      5.74     58.82    295.40     13.59     12.97
01/03 11:00      0.00    796.32     38602        12        15     29.70    333.26      8.11     54.07    495.24     13.56     12.91
01/03 12:00      0.00    796.32     38602        15        15     31.39    341.20      9.50     45.70    602.58     13.57     12.93
01/03 13:00      0.00    796.32     38602        18        15     33.22    334.10      7.72     41.13    638.64     13.59     12.88
01/03 14:00      0.00    796.31     38565         0        15     34.61    331.67      7.99     37.62    602.22     13.53     12.90
01/03 15:00      0.00    796.31     38565        15        15     35.82    331.30      7.27     34.35    495.37     13.57     12.88
01/03 16:00      0.00    796.30     38528        15        15     36.07    336.96      6.52     33.24    334.26     13.60     12.86
01/03 17:00      0.00    796.30     38528        15        15     35.76    315.95      4.47     33.28    140.43     13.55     12.71
01/03 18:00      0.00    796.31     38565        15        15     31.77    319.00      2.49     38.34      3.26     13.58     12.86
01/03 19:00      0.00    796.30     38528        15        15     29.03      3.29      2.33     42.50      0.00     13.59     12.95
01/03 20:00      0.00    796.31     38565        15        15     27.01    349.46      1.86     45.20      0.00     13.55     12.84
01/03 21:00      0.00    796.31     38565        15        15     25.70      0.65      2.51     46.55      0.00     13.60     12.83
01/03 22:00      0.00    796.30     38528        15        15     23.43    356.90      3.61     49.94      0.00     13.55     12.88
01/03 23:00      0.00    796.31     38565        15        15     23.16    348.88      6.03     50.10      0.00     13.58     12.82